sensor_id;sensor_type;location;lat;lon;timestamp;temperature;humidity
24408;DHT22;12542;50.924;4.516;2023-03-31T00:00:51;12.10;99.90
24408;DHT22;12542;50.924;4.516;2023-03-31T00:03:16;12.20;99.90
24408;DHT22;12542;50.924;4.516;2023-03-31T00:05:54;12.10;99.90
24408;DHT22;12542;50.924;4.516;2023-03-31T00:08:20;12.10;99.90
24408;DHT22;12542;50.924;4.516;2023-03-31T00:10:46;12.10;99.90
24408;DHT22;12542;50.924;4.516;2023-03-31T00:13:13;12.10;99.90
24408;DHT22;12542;50.924;4.516;2023-03-31T00:15:39;12.10;99.90
24408;DHT22;12542;50.924;4.516;2023-03-31T00:18:05;12.20;99.90
24408;DHT22;12542;50.924;4.516;2023-03-31T00:20:31;12.20;99.90
24408;DHT22;12542;50.924;4.516;2023-03-31T00:23:02;12.20;99.90
24408;DHT22;12542;50.924;4.516;2023-03-31T00:25:31;12.20;99.90
24408;DHT22;12542;50.924;4.516;2023-03-31T00:27:56;12.20;99.90
24408;DHT22;12542;50.924;4.516;2023-03-31T00:30:22;12.20;99.90
24408;DHT22;12542;50.924;4.516;2023-03-31T00:32:48;12.10;99.90
24408;DHT22;12542;50.924;4.516;2023-03-31T00:35:13;12.10;99.90
24408;DHT22;12542;50.924;4.516;2023-03-31T00:37:39;12.20;99.90
24408;DHT22;12542;50.924;4.516;2023-03-31T00:40:05;12.20;99.90
24408;DHT22;12542;50.924;4.516;2023-03-31T00:42:38;12.20;99.90
24408;DHT22;12542;50.924;4.516;2023-03-31T00:50:23;12.20;99.90
24408;DHT22;12542;50.924;4.516;2023-03-31T00:53:00;12.10;99.90
24408;DHT22;12542;50.924;4.516;2023-03-31T00:55:48;12.00;99.90
24408;DHT22;12542;50.924;4.516;2023-03-31T00:58:15;12.00;99.90
24408;DHT22;12542;50.924;4.516;2023-03-31T01:00:48;12.00;99.90
24408;DHT22;12542;50.924;4.516;2023-03-31T01:03:17;11.90;99.90
24408;DHT22;12542;50.924;4.516;2023-03-31T01:06:02;11.80;99.90
24408;DHT22;12542;50.924;4.516;2023-03-31T01:08:30;11.80;99.90
24408;DHT22;12542;50.924;4.516;2023-03-31T01:10:59;11.70;99.90
24408;DHT22;12542;50.924;4.516;2023-03-31T01:13:27;11.70;99.90
24408;DHT22;12542;50.924;4.516;2023-03-31T01:15:54;11.60;99.90
24408;DHT22;12542;50.924;4.516;2023-03-31T01:18:20;11.60;99.90
24408;DHT22;12542;50.924;4.516;2023-03-31T01:30:02;11.50;99.90
24408;DHT22;12542;50.924;4.516;2023-03-31T01:41:14;11.50;99.90
24408;DHT22;12542;50.924;4.516;2023-03-31T01:43:46;11.50;99.90
24408;DHT22;12542;50.924;4.516;2023-03-31T01:46:27;11.40;99.90
24408;DHT22;12542;50.924;4.516;2023-03-31T01:49:16;11.40;99.90
24408;DHT22;12542;50.924;4.516;2023-03-31T01:52:02;11.40;99.90
24408;DHT22;12542;50.924;4.516;2023-03-31T01:54:38;11.40;99.90
24408;DHT22;12542;50.924;4.516;2023-03-31T01:57:11;11.40;99.90
24408;DHT22;12542;50.924;4.516;2023-03-31T02:02:32;11.30;99.90
24408;DHT22;12542;50.924;4.516;2023-03-31T02:05:06;11.30;99.90
24408;DHT22;12542;50.924;4.516;2023-03-31T02:07:42;11.20;99.90
24408;DHT22;12542;50.924;4.516;2023-03-31T02:10:11;11.30;99.90
24408;DHT22;12542;50.924;4.516;2023-03-31T02:12:40;11.30;99.90
24408;DHT22;12542;50.924;4.516;2023-03-31T02:15:10;11.30;99.90
24408;DHT22;12542;50.924;4.516;2023-03-31T02:17:39;11.30;99.90
24408;DHT22;12542;50.924;4.516;2023-03-31T02:20:09;11.20;99.90
24408;DHT22;12542;50.924;4.516;2023-03-31T02:22:38;11.20;99.90
24408;DHT22;12542;50.924;4.516;2023-03-31T02:25:09;11.20;99.90
24408;DHT22;12542;50.924;4.516;2023-03-31T02:27:40;11.10;99.90
24408;DHT22;12542;50.924;4.516;2023-03-31T02:30:08;11.10;99.90
24408;DHT22;12542;50.924;4.516;2023-03-31T02:32:37;11.10;99.90
24408;DHT22;12542;50.924;4.516;2023-03-31T02:35:04;11.10;99.90
24408;DHT22;12542;50.924;4.516;2023-03-31T02:37:33;11.00;99.90
24408;DHT22;12542;50.924;4.516;2023-03-31T02:40:02;11.00;99.90
24408;DHT22;12542;50.924;4.516;2023-03-31T02:42:29;11.00;99.90
24408;DHT22;12542;50.924;4.516;2023-03-31T02:45:04;11.00;99.90
24408;DHT22;12542;50.924;4.516;2023-03-31T02:47:30;11.00;99.90
24408;DHT22;12542;50.924;4.516;2023-03-31T02:50:00;11.00;99.90
24408;DHT22;12542;50.924;4.516;2023-03-31T03:03:37;11.10;99.90
24408;DHT22;12542;50.924;4.516;2023-03-31T03:06:25;11.10;99.90
24408;DHT22;12542;50.924;4.516;2023-03-31T03:14:47;11.10;99.90
24408;DHT22;12542;50.924;4.516;2023-03-31T03:17:29;11.10;99.90
24408;DHT22;12542;50.924;4.516;2023-03-31T03:20:00;11.10;99.90
24408;DHT22;12542;50.924;4.516;2023-03-31T03:22:26;11.20;99.90
24408;DHT22;12542;50.924;4.516;2023-03-31T03:24:52;11.20;99.90
24408;DHT22;12542;50.924;4.516;2023-03-31T03:27:19;11.10;99.90
24408;DHT22;12542;50.924;4.516;2023-03-31T03:29:46;11.00;99.90
24408;DHT22;12542;50.924;4.516;2023-03-31T03:32:14;11.00;99.90
24408;DHT22;12542;50.924;4.516;2023-03-31T03:34:40;11.00;99.90
24408;DHT22;12542;50.924;4.516;2023-03-31T03:37:06;11.00;99.90
24408;DHT22;12542;50.924;4.516;2023-03-31T03:39:32;10.90;99.90
24408;DHT22;12542;50.924;4.516;2023-03-31T03:41:57;10.90;99.90
24408;DHT22;12542;50.924;4.516;2023-03-31T03:44:23;10.90;99.90
24408;DHT22;12542;50.924;4.516;2023-03-31T03:46:49;10.80;99.90
24408;DHT22;12542;50.924;4.516;2023-03-31T03:49:15;10.80;99.90
24408;DHT22;12542;50.924;4.516;2023-03-31T03:51:40;11.00;99.90
24408;DHT22;12542;50.924;4.516;2023-03-31T03:54:06;10.90;99.90
24408;DHT22;12542;50.924;4.516;2023-03-31T03:56:32;10.90;99.90
24408;DHT22;12542;50.924;4.516;2023-03-31T03:58:58;11.00;99.90
24408;DHT22;12542;50.924;4.516;2023-03-31T04:01:23;11.10;99.90
24408;DHT22;12542;50.924;4.516;2023-03-31T04:03:50;11.10;99.90
24408;DHT22;12542;50.924;4.516;2023-03-31T04:06:15;11.10;99.90
24408;DHT22;12542;50.924;4.516;2023-03-31T04:08:41;11.10;99.90
24408;DHT22;12542;50.924;4.516;2023-03-31T04:11:13;11.00;99.90
24408;DHT22;12542;50.924;4.516;2023-03-31T04:13:39;10.90;99.90
24408;DHT22;12542;50.924;4.516;2023-03-31T04:16:06;10.70;99.90
24408;DHT22;12542;50.924;4.516;2023-03-31T04:18:32;10.70;99.90
24408;DHT22;12542;50.924;4.516;2023-03-31T04:20:57;10.60;99.90
24408;DHT22;12542;50.924;4.516;2023-03-31T04:23:34;10.60;99.90
24408;DHT22;12542;50.924;4.516;2023-03-31T04:26:03;10.60;99.90
24408;DHT22;12542;50.924;4.516;2023-03-31T04:28:34;10.50;99.90
24408;DHT22;12542;50.924;4.516;2023-03-31T04:31:03;10.50;99.90
24408;DHT22;12542;50.924;4.516;2023-03-31T04:33:33;10.40;99.90
24408;DHT22;12542;50.924;4.516;2023-03-31T04:36:03;10.40;99.90
24408;DHT22;12542;50.924;4.516;2023-03-31T04:38:31;10.40;99.90
24408;DHT22;12542;50.924;4.516;2023-03-31T04:40:58;10.40;99.90
24408;DHT22;12542;50.924;4.516;2023-03-31T04:43:24;10.30;99.90
24408;DHT22;12542;50.924;4.516;2023-03-31T04:45:50;10.30;99.90
24408;DHT22;12542;50.924;4.516;2023-03-31T04:48:16;10.30;99.90
24408;DHT22;12542;50.924;4.516;2023-03-31T04:50:42;10.30;99.90
24408;DHT22;12542;50.924;4.516;2023-03-31T04:53:10;10.40;99.90
24408;DHT22;12542;50.924;4.516;2023-03-31T04:55:36;10.40;99.90
24408;DHT22;12542;50.924;4.516;2023-03-31T04:58:02;10.40;99.90
24408;DHT22;12542;50.924;4.516;2023-03-31T05:00:28;10.50;99.90
24408;DHT22;12542;50.924;4.516;2023-03-31T05:02:54;10.50;99.90
24408;DHT22;12542;50.924;4.516;2023-03-31T05:05:20;10.60;99.90
24408;DHT22;12542;50.924;4.516;2023-03-31T05:07:46;10.70;99.90
24408;DHT22;12542;50.924;4.516;2023-03-31T05:10:11;10.80;99.90
24408;DHT22;12542;50.924;4.516;2023-03-31T05:12:37;10.90;99.90
24408;DHT22;12542;50.924;4.516;2023-03-31T05:15:06;10.90;99.90
24408;DHT22;12542;50.924;4.516;2023-03-31T05:17:32;10.90;99.90
24408;DHT22;12542;50.924;4.516;2023-03-31T05:19:59;11.00;99.90
24408;DHT22;12542;50.924;4.516;2023-03-31T05:22:25;11.00;99.90
24408;DHT22;12542;50.924;4.516;2023-03-31T05:24:51;11.00;99.90
24408;DHT22;12542;50.924;4.516;2023-03-31T05:27:17;11.00;99.90
24408;DHT22;12542;50.924;4.516;2023-03-31T05:29:43;11.00;99.90
24408;DHT22;12542;50.924;4.516;2023-03-31T05:32:12;11.10;99.90
24408;DHT22;12542;50.924;4.516;2023-03-31T05:34:37;11.10;99.90
24408;DHT22;12542;50.924;4.516;2023-03-31T05:37:03;11.20;99.90
24408;DHT22;12542;50.924;4.516;2023-03-31T05:39:29;11.20;99.90
24408;DHT22;12542;50.924;4.516;2023-03-31T05:41:58;11.20;99.90
24408;DHT22;12542;50.924;4.516;2023-03-31T05:44:24;11.20;99.90
24408;DHT22;12542;50.924;4.516;2023-03-31T05:46:52;11.20;99.90
24408;DHT22;12542;50.924;4.516;2023-03-31T05:49:18;11.10;99.90
24408;DHT22;12542;50.924;4.516;2023-03-31T05:51:43;11.20;99.90
24408;DHT22;12542;50.924;4.516;2023-03-31T05:54:12;11.20;99.90
24408;DHT22;12542;50.924;4.516;2023-03-31T05:56:40;11.30;99.90
24408;DHT22;12542;50.924;4.516;2023-03-31T05:59:06;11.30;99.90
24408;DHT22;12542;50.924;4.516;2023-03-31T06:01:31;11.30;99.90
24408;DHT22;12542;50.924;4.516;2023-03-31T06:03:57;11.30;99.90
24408;DHT22;12542;50.924;4.516;2023-03-31T06:06:23;11.30;99.90
24408;DHT22;12542;50.924;4.516;2023-03-31T06:08:50;11.40;99.90
24408;DHT22;12542;50.924;4.516;2023-03-31T06:11:17;11.40;99.90
24408;DHT22;12542;50.924;4.516;2023-03-31T06:13:47;11.40;99.90
24408;DHT22;12542;50.924;4.516;2023-03-31T06:16:14;11.50;99.90
24408;DHT22;12542;50.924;4.516;2023-03-31T06:18:41;11.50;99.90
24408;DHT22;12542;50.924;4.516;2023-03-31T06:21:12;11.60;99.90
24408;DHT22;12542;50.924;4.516;2023-03-31T06:23:37;11.60;99.90
24408;DHT22;12542;50.924;4.516;2023-03-31T06:26:07;11.60;99.90
24408;DHT22;12542;50.924;4.516;2023-03-31T06:28:36;11.60;99.90
24408;DHT22;12542;50.924;4.516;2023-03-31T06:31:03;11.60;99.90
24408;DHT22;12542;50.924;4.516;2023-03-31T06:33:30;11.70;99.90
24408;DHT22;12542;50.924;4.516;2023-03-31T06:35:56;11.70;99.90
24408;DHT22;12542;50.924;4.516;2023-03-31T06:38:22;11.80;99.90
24408;DHT22;12542;50.924;4.516;2023-03-31T06:40:49;11.90;99.90
24408;DHT22;12542;50.924;4.516;2023-03-31T06:43:14;11.90;99.90
24408;DHT22;12542;50.924;4.516;2023-03-31T06:45:40;12.00;99.90
24408;DHT22;12542;50.924;4.516;2023-03-31T06:48:06;12.00;99.90
24408;DHT22;12542;50.924;4.516;2023-03-31T06:50:31;12.00;99.90
24408;DHT22;12542;50.924;4.516;2023-03-31T06:52:57;12.00;99.90
24408;DHT22;12542;50.924;4.516;2023-03-31T06:55:24;12.00;99.90
24408;DHT22;12542;50.924;4.516;2023-03-31T06:57:50;12.10;99.90
24408;DHT22;12542;50.924;4.516;2023-03-31T07:00:16;12.30;99.90
24408;DHT22;12542;50.924;4.516;2023-03-31T07:02:42;12.40;99.90
24408;DHT22;12542;50.924;4.516;2023-03-31T07:05:08;12.70;99.90
24408;DHT22;12542;50.924;4.516;2023-03-31T07:07:33;12.70;99.90
24408;DHT22;12542;50.924;4.516;2023-03-31T07:09:59;12.70;99.90
24408;DHT22;12542;50.924;4.516;2023-03-31T07:12:25;12.70;99.90
24408;DHT22;12542;50.924;4.516;2023-03-31T07:14:50;12.60;99.90
24408;DHT22;12542;50.924;4.516;2023-03-31T07:17:16;12.80;99.90
24408;DHT22;12542;50.924;4.516;2023-03-31T07:19:42;12.90;99.90
24408;DHT22;12542;50.924;4.516;2023-03-31T07:22:12;13.00;99.90
24408;DHT22;12542;50.924;4.516;2023-03-31T07:24:39;12.90;99.90
24408;DHT22;12542;50.924;4.516;2023-03-31T07:27:05;12.90;99.90
24408;DHT22;12542;50.924;4.516;2023-03-31T07:29:32;12.90;99.90
24408;DHT22;12542;50.924;4.516;2023-03-31T07:32:00;12.90;99.90
24408;DHT22;12542;50.924;4.516;2023-03-31T07:34:26;13.00;99.90
24408;DHT22;12542;50.924;4.516;2023-03-31T07:36:54;13.00;99.90
24408;DHT22;12542;50.924;4.516;2023-03-31T07:39:21;12.90;99.90
24408;DHT22;12542;50.924;4.516;2023-03-31T07:41:47;13.00;99.90
24408;DHT22;12542;50.924;4.516;2023-03-31T07:53:01;13.00;99.90
24408;DHT22;12542;50.924;4.516;2023-03-31T07:55:52;12.90;99.90
24408;DHT22;12542;50.924;4.516;2023-03-31T07:58:20;12.80;99.90
24408;DHT22;12542;50.924;4.516;2023-03-31T08:01:36;12.70;99.90
24408;DHT22;12542;50.924;4.516;2023-03-31T08:04:32;12.70;99.90
24408;DHT22;12542;50.924;4.516;2023-03-31T08:07:15;12.80;99.90
24408;DHT22;12542;50.924;4.516;2023-03-31T08:09:44;12.60;99.90
24408;DHT22;12542;50.924;4.516;2023-03-31T08:12:10;12.70;99.90
24408;DHT22;12542;50.924;4.516;2023-03-31T08:14:37;12.70;99.90
24408;DHT22;12542;50.924;4.516;2023-03-31T08:17:04;12.80;99.90
24408;DHT22;12542;50.924;4.516;2023-03-31T08:19:31;12.80;99.90
24408;DHT22;12542;50.924;4.516;2023-03-31T08:27:25;13.20;99.90
24408;DHT22;12542;50.924;4.516;2023-03-31T08:30:06;13.40;99.90
24408;DHT22;12542;50.924;4.516;2023-03-31T08:32:53;13.30;99.90
24408;DHT22;12542;50.924;4.516;2023-03-31T08:35:26;13.30;99.90
24408;DHT22;12542;50.924;4.516;2023-03-31T08:37:55;13.30;99.90
24408;DHT22;12542;50.924;4.516;2023-03-31T08:40:28;13.40;99.90
24408;DHT22;12542;50.924;4.516;2023-03-31T08:43:01;13.60;99.90
24408;DHT22;12542;50.924;4.516;2023-03-31T08:45:33;13.60;99.90
24408;DHT22;12542;50.924;4.516;2023-03-31T08:48:09;13.50;99.90
24408;DHT22;12542;50.924;4.516;2023-03-31T08:50:49;13.50;99.90
24408;DHT22;12542;50.924;4.516;2023-03-31T08:53:58;13.50;99.90
24408;DHT22;12542;50.924;4.516;2023-03-31T08:56:28;13.20;99.90
24408;DHT22;12542;50.924;4.516;2023-03-31T08:58:57;13.10;99.90
24408;DHT22;12542;50.924;4.516;2023-03-31T09:15:58;13.10;99.90
24408;DHT22;12542;50.924;4.516;2023-03-31T09:18:45;13.00;99.90
24408;DHT22;12542;50.924;4.516;2023-03-31T09:21:34;13.00;99.90
24408;DHT22;12542;50.924;4.516;2023-03-31T09:26:59;13.00;99.90
24408;DHT22;12542;50.924;4.516;2023-03-31T09:30:02;12.90;99.90
24408;DHT22;12542;50.924;4.516;2023-03-31T09:32:31;13.00;99.90
24408;DHT22;12542;50.924;4.516;2023-03-31T09:35:02;12.90;99.90
24408;DHT22;12542;50.924;4.516;2023-03-31T09:37:37;13.10;99.90
24408;DHT22;12542;50.924;4.516;2023-03-31T09:40:04;13.20;99.90
24408;DHT22;12542;50.924;4.516;2023-03-31T09:42:35;13.20;99.90
24408;DHT22;12542;50.924;4.516;2023-03-31T09:45:03;13.20;99.90
24408;DHT22;12542;50.924;4.516;2023-03-31T09:47:42;13.10;99.90
24408;DHT22;12542;50.924;4.516;2023-03-31T09:50:10;13.10;99.90
24408;DHT22;12542;50.924;4.516;2023-03-31T09:52:42;13.20;99.90
24408;DHT22;12542;50.924;4.516;2023-03-31T09:57:43;13.40;99.90
24408;DHT22;12542;50.924;4.516;2023-03-31T10:02:42;13.50;99.90
24408;DHT22;12542;50.924;4.516;2023-03-31T10:13:27;13.20;99.90
24408;DHT22;12542;50.924;4.516;2023-03-31T10:16:02;13.20;99.90
24408;DHT22;12542;50.924;4.516;2023-03-31T10:18:34;13.20;99.90
24408;DHT22;12542;50.924;4.516;2023-03-31T10:21:03;13.20;99.90
24408;DHT22;12542;50.924;4.516;2023-03-31T10:23:32;13.10;99.90
24408;DHT22;12542;50.924;4.516;2023-03-31T10:25:59;13.20;99.90
24408;DHT22;12542;50.924;4.516;2023-03-31T10:28:26;13.30;99.90
24408;DHT22;12542;50.924;4.516;2023-03-31T10:30:56;13.20;99.90
24408;DHT22;12542;50.924;4.516;2023-03-31T10:33:27;13.30;99.90
24408;DHT22;12542;50.924;4.516;2023-03-31T10:35:57;13.20;99.90
24408;DHT22;12542;50.924;4.516;2023-03-31T10:41:52;13.30;99.90
24408;DHT22;12542;50.924;4.516;2023-03-31T10:44:33;13.20;99.90
24408;DHT22;12542;50.924;4.516;2023-03-31T10:47:20;13.20;99.90
24408;DHT22;12542;50.924;4.516;2023-03-31T10:49:55;13.30;99.90
24408;DHT22;12542;50.924;4.516;2023-03-31T10:52:25;13.20;99.90
24408;DHT22;12542;50.924;4.516;2023-03-31T10:54:59;13.50;99.90
24408;DHT22;12542;50.924;4.516;2023-03-31T10:57:49;13.60;99.90
24408;DHT22;12542;50.924;4.516;2023-03-31T11:05:38;13.60;99.90
24408;DHT22;12542;50.924;4.516;2023-03-31T11:08:18;13.50;99.90
24408;DHT22;12542;50.924;4.516;2023-03-31T11:30:38;13.40;99.90
24408;DHT22;12542;50.924;4.516;2023-03-31T11:33:45;13.50;99.90
24408;DHT22;12542;50.924;4.516;2023-03-31T11:39:24;13.50;99.90
24408;DHT22;12542;50.924;4.516;2023-03-31T11:42:00;13.30;99.90
24408;DHT22;12542;50.924;4.516;2023-03-31T11:44:29;13.60;99.90
24408;DHT22;12542;50.924;4.516;2023-03-31T11:47:12;13.90;99.90
24408;DHT22;12542;50.924;4.516;2023-03-31T11:49:44;14.00;99.90
24408;DHT22;12542;50.924;4.516;2023-03-31T11:52:14;14.00;99.90
24408;DHT22;12542;50.924;4.516;2023-03-31T12:00:16;13.80;99.90
24408;DHT22;12542;50.924;4.516;2023-03-31T12:05:50;13.60;99.90
24408;DHT22;12542;50.924;4.516;2023-03-31T12:08:28;13.70;99.90
24408;DHT22;12542;50.924;4.516;2023-03-31T12:11:04;13.70;99.90
24408;DHT22;12542;50.924;4.516;2023-03-31T12:16:11;13.30;99.90
24408;DHT22;12542;50.924;4.516;2023-03-31T12:18:48;13.10;99.90
24408;DHT22;12542;50.924;4.516;2023-03-31T12:21:24;12.90;99.90
24408;DHT22;12542;50.924;4.516;2023-03-31T12:23:51;12.90;99.90
24408;DHT22;12542;50.924;4.516;2023-03-31T12:29:24;13.00;99.90
24408;DHT22;12542;50.924;4.516;2023-03-31T12:31:53;13.10;99.90
24408;DHT22;12542;50.924;4.516;2023-03-31T12:34:22;13.30;99.90
24408;DHT22;12542;50.924;4.516;2023-03-31T12:45:28;13.20;99.90
24408;DHT22;12542;50.924;4.516;2023-03-31T12:57:11;13.70;99.90
24408;DHT22;12542;50.924;4.516;2023-03-31T12:59:39;13.60;99.90
24408;DHT22;12542;50.924;4.516;2023-03-31T13:04:38;13.50;99.90
24408;DHT22;12542;50.924;4.516;2023-03-31T13:07:11;13.60;99.90
24408;DHT22;12542;50.924;4.516;2023-03-31T13:09:42;13.70;99.90
24408;DHT22;12542;50.924;4.516;2023-03-31T13:12:19;14.10;99.90
24408;DHT22;12542;50.924;4.516;2023-03-31T13:14:48;14.20;99.90
24408;DHT22;12542;50.924;4.516;2023-03-31T13:19:48;14.00;99.90
24408;DHT22;12542;50.924;4.516;2023-03-31T13:27:53;14.20;99.90
24408;DHT22;12542;50.924;4.516;2023-03-31T13:30:45;14.10;99.90
24408;DHT22;12542;50.924;4.516;2023-03-31T13:33:22;14.20;99.90
24408;DHT22;12542;50.924;4.516;2023-03-31T13:39:18;14.30;99.90
24408;DHT22;12542;50.924;4.516;2023-03-31T13:58:45;13.50;99.90
24408;DHT22;12542;50.924;4.516;2023-03-31T14:06:52;13.70;99.90
24408;DHT22;12542;50.924;4.516;2023-03-31T14:09:33;13.50;99.90
24408;DHT22;12542;50.924;4.516;2023-03-31T14:12:00;13.60;99.90
24408;DHT22;12542;50.924;4.516;2023-03-31T14:14:26;13.70;99.90
24408;DHT22;12542;50.924;4.516;2023-03-31T14:16:57;13.80;99.90
24408;DHT22;12542;50.924;4.516;2023-03-31T14:23:06;13.50;99.90
24408;DHT22;12542;50.924;4.516;2023-03-31T14:26:14;13.80;99.90
24408;DHT22;12542;50.924;4.516;2023-03-31T14:29:37;13.70;99.90
24408;DHT22;12542;50.924;4.516;2023-03-31T14:37:18;14.40;99.90
24408;DHT22;12542;50.924;4.516;2023-03-31T14:39:49;13.80;99.90
24408;DHT22;12542;50.924;4.516;2023-03-31T14:42:26;13.90;99.90
24408;DHT22;12542;50.924;4.516;2023-03-31T14:45:01;13.90;99.90
24408;DHT22;12542;50.924;4.516;2023-03-31T14:47:28;14.10;99.90
24408;DHT22;12542;50.924;4.516;2023-03-31T14:50:04;14.10;99.90
24408;DHT22;12542;50.924;4.516;2023-03-31T14:52:33;14.10;99.90
24408;DHT22;12542;50.924;4.516;2023-03-31T14:55:00;14.00;99.90
24408;DHT22;12542;50.924;4.516;2023-03-31T14:57:30;13.90;99.90
24408;DHT22;12542;50.924;4.516;2023-03-31T14:59:56;14.00;99.90
24408;DHT22;12542;50.924;4.516;2023-03-31T15:02:34;13.90;99.90
24408;DHT22;12542;50.924;4.516;2023-03-31T15:05:02;13.80;99.90
24408;DHT22;12542;50.924;4.516;2023-03-31T15:07:28;13.70;99.90
24408;DHT22;12542;50.924;4.516;2023-03-31T15:09:54;13.50;99.90
24408;DHT22;12542;50.924;4.516;2023-03-31T15:12:21;13.60;99.90
24408;DHT22;12542;50.924;4.516;2023-03-31T15:14:56;13.50;99.90
24408;DHT22;12542;50.924;4.516;2023-03-31T15:17:31;13.50;99.90
24408;DHT22;12542;50.924;4.516;2023-03-31T15:20:17;13.50;99.90
24408;DHT22;12542;50.924;4.516;2023-03-31T15:22:45;13.60;99.90
24408;DHT22;12542;50.924;4.516;2023-03-31T15:25:14;13.40;99.90
24408;DHT22;12542;50.924;4.516;2023-03-31T15:28:06;13.50;99.90
24408;DHT22;12542;50.924;4.516;2023-03-31T15:30:32;13.10;99.90
24408;DHT22;12542;50.924;4.516;2023-03-31T15:32:59;13.20;99.90
24408;DHT22;12542;50.924;4.516;2023-03-31T15:35:30;13.40;99.90
24408;DHT22;12542;50.924;4.516;2023-03-31T15:37:58;13.60;99.90
24408;DHT22;12542;50.924;4.516;2023-03-31T15:40:25;13.50;99.90
24408;DHT22;12542;50.924;4.516;2023-03-31T15:43:31;13.60;99.90
24408;DHT22;12542;50.924;4.516;2023-03-31T15:45:58;13.60;99.90
24408;DHT22;12542;50.924;4.516;2023-03-31T15:48:37;13.80;99.90
24408;DHT22;12542;50.924;4.516;2023-03-31T15:53:46;13.30;99.90
24408;DHT22;12542;50.924;4.516;2023-03-31T15:56:36;13.40;99.90
24408;DHT22;12542;50.924;4.516;2023-03-31T15:59:06;13.50;99.90
24408;DHT22;12542;50.924;4.516;2023-03-31T16:01:47;13.70;99.90
24408;DHT22;12542;50.924;4.516;2023-03-31T16:04:14;13.80;99.90
24408;DHT22;12542;50.924;4.516;2023-03-31T16:06:48;13.80;99.90
24408;DHT22;12542;50.924;4.516;2023-03-31T16:09:27;13.90;99.90
24408;DHT22;12542;50.924;4.516;2023-03-31T16:11:58;13.70;99.90
24408;DHT22;12542;50.924;4.516;2023-03-31T16:14:37;13.60;99.90
24408;DHT22;12542;50.924;4.516;2023-03-31T16:17:12;13.50;99.90
24408;DHT22;12542;50.924;4.516;2023-03-31T16:19:47;13.20;99.90
24408;DHT22;12542;50.924;4.516;2023-03-31T16:22:17;13.30;99.90
24408;DHT22;12542;50.924;4.516;2023-03-31T16:24:45;13.00;99.90
24408;DHT22;12542;50.924;4.516;2023-03-31T16:27:11;13.10;99.90
24408;DHT22;12542;50.924;4.516;2023-03-31T16:29:39;13.00;99.90
24408;DHT22;12542;50.924;4.516;2023-03-31T16:32:16;12.80;99.90
24408;DHT22;12542;50.924;4.516;2023-03-31T16:35:01;12.80;99.90
24408;DHT22;12542;50.924;4.516;2023-03-31T16:37:27;12.90;99.90
24408;DHT22;12542;50.924;4.516;2023-03-31T16:39:53;12.90;99.90
24408;DHT22;12542;50.924;4.516;2023-03-31T16:42:19;12.90;99.90
24408;DHT22;12542;50.924;4.516;2023-03-31T16:44:45;13.00;99.90
24408;DHT22;12542;50.924;4.516;2023-03-31T16:47:12;13.00;99.90
24408;DHT22;12542;50.924;4.516;2023-03-31T16:49:38;12.80;99.90
24408;DHT22;12542;50.924;4.516;2023-03-31T16:52:03;12.60;99.90
24408;DHT22;12542;50.924;4.516;2023-03-31T16:54:30;12.60;99.90
24408;DHT22;12542;50.924;4.516;2023-03-31T16:56:58;12.60;99.90
24408;DHT22;12542;50.924;4.516;2023-03-31T16:59:24;12.70;99.90
24408;DHT22;12542;50.924;4.516;2023-03-31T17:01:50;12.60;99.90
24408;DHT22;12542;50.924;4.516;2023-03-31T17:04:16;12.60;99.90
24408;DHT22;12542;50.924;4.516;2023-03-31T17:06:42;12.60;99.90
24408;DHT22;12542;50.924;4.516;2023-03-31T17:09:08;12.60;99.90
24408;DHT22;12542;50.924;4.516;2023-03-31T17:11:35;12.60;99.90
24408;DHT22;12542;50.924;4.516;2023-03-31T17:14:00;12.60;99.90
24408;DHT22;12542;50.924;4.516;2023-03-31T17:16:26;12.60;99.90
24408;DHT22;12542;50.924;4.516;2023-03-31T17:18:52;12.60;99.90
24408;DHT22;12542;50.924;4.516;2023-03-31T17:21:18;12.50;99.90
24408;DHT22;12542;50.924;4.516;2023-03-31T17:23:45;12.50;99.90
24408;DHT22;12542;50.924;4.516;2023-03-31T17:26:14;12.40;99.90
24408;DHT22;12542;50.924;4.516;2023-03-31T17:28:43;12.50;99.90
24408;DHT22;12542;50.924;4.516;2023-03-31T17:31:14;12.40;99.90
24408;DHT22;12542;50.924;4.516;2023-03-31T17:33:40;12.40;99.90
24408;DHT22;12542;50.924;4.516;2023-03-31T17:36:08;12.30;99.90
24408;DHT22;12542;50.924;4.516;2023-03-31T17:38:35;12.10;99.90
24408;DHT22;12542;50.924;4.516;2023-03-31T17:41:03;12.20;99.90
24408;DHT22;12542;50.924;4.516;2023-03-31T17:43:29;12.20;99.90
24408;DHT22;12542;50.924;4.516;2023-03-31T17:46:06;12.30;99.90
24408;DHT22;12542;50.924;4.516;2023-03-31T17:48:32;12.20;99.90
24408;DHT22;12542;50.924;4.516;2023-03-31T17:51:10;12.20;99.90
24408;DHT22;12542;50.924;4.516;2023-03-31T17:53:38;12.20;99.90
24408;DHT22;12542;50.924;4.516;2023-03-31T17:56:04;12.20;99.90
24408;DHT22;12542;50.924;4.516;2023-03-31T17:58:31;12.10;99.90
24408;DHT22;12542;50.924;4.516;2023-03-31T18:00:57;12.10;99.90
24408;DHT22;12542;50.924;4.516;2023-03-31T18:03:23;12.00;99.90
24408;DHT22;12542;50.924;4.516;2023-03-31T18:05:49;11.90;99.90
24408;DHT22;12542;50.924;4.516;2023-03-31T18:08:15;11.90;99.90
24408;DHT22;12542;50.924;4.516;2023-03-31T18:10:42;11.80;99.90
24408;DHT22;12542;50.924;4.516;2023-03-31T18:13:08;11.90;99.90
24408;DHT22;12542;50.924;4.516;2023-03-31T18:15:34;12.00;99.90
24408;DHT22;12542;50.924;4.516;2023-03-31T18:18:00;11.90;99.90
24408;DHT22;12542;50.924;4.516;2023-03-31T18:20:26;11.90;99.90
24408;DHT22;12542;50.924;4.516;2023-03-31T18:22:52;11.70;99.90
24408;DHT22;12542;50.924;4.516;2023-03-31T18:25:18;11.80;99.90
24408;DHT22;12542;50.924;4.516;2023-03-31T18:27:43;11.80;99.90
24408;DHT22;12542;50.924;4.516;2023-03-31T18:30:12;11.60;99.90
24408;DHT22;12542;50.924;4.516;2023-03-31T18:32:37;11.70;99.90
24408;DHT22;12542;50.924;4.516;2023-03-31T18:35:04;11.80;99.90
24408;DHT22;12542;50.924;4.516;2023-03-31T18:37:30;11.80;99.90
24408;DHT22;12542;50.924;4.516;2023-03-31T18:39:56;11.70;99.90
24408;DHT22;12542;50.924;4.516;2023-03-31T18:42:22;11.80;99.90
24408;DHT22;12542;50.924;4.516;2023-03-31T18:44:52;11.70;99.90
24408;DHT22;12542;50.924;4.516;2023-03-31T18:47:19;11.80;99.90
24408;DHT22;12542;50.924;4.516;2023-03-31T18:49:45;11.90;99.90
24408;DHT22;12542;50.924;4.516;2023-03-31T18:52:13;12.00;99.90
24408;DHT22;12542;50.924;4.516;2023-03-31T18:54:39;11.90;99.90
24408;DHT22;12542;50.924;4.516;2023-03-31T18:57:04;11.80;99.90
24408;DHT22;12542;50.924;4.516;2023-03-31T18:59:30;11.80;99.90
24408;DHT22;12542;50.924;4.516;2023-03-31T19:01:56;11.90;99.90
24408;DHT22;12542;50.924;4.516;2023-03-31T19:04:22;11.80;99.90
24408;DHT22;12542;50.924;4.516;2023-03-31T19:06:48;11.70;99.90
24408;DHT22;12542;50.924;4.516;2023-03-31T19:09:13;11.70;99.90